Time;durP1;ratioP1;P1;durP2;ratioP2;P2;SDS_P1;SDS_P2;PMS_P1;PMS_P2;Temp;Humidity;BMP_temperature;BMP_pressure;BME280_temperature;BME280_humidity;BME280_pressure;Samples;Min_cycle;Max_cycle;Signal;HPM_P1;HPM_P2
2023/08/23 00:00:38;;;;;;;;;;;22.10;99.90;;;;;;5054414;28;20353;-70
2023/08/23 00:03:06;;;;;;;;;;;22.20;99.90;;;;;;5067475;28;20453;-71
2023/08/23 00:05:34;;;;;;;;;;;22.20;99.90;;;;;;5052772;28;20311;-70
2023/08/23 00:08:02;;;;;;;;;;;22.10;99.90;;;;;;5053251;28;19925;-70
2023/08/23 00:10:29;;;;;;;;;;;22.00;99.90;;;;;;5052923;28;20402;-71
2023/08/23 00:12:57;;;;;;;;;;;22.00;99.90;;;;;;5049983;28;20399;-69
2023/08/23 00:15:25;;;;;;;;;;;21.90;99.90;;;;;;5053112;28;19929;-70
2023/08/23 00:17:54;;;;;;;;;;;21.90;99.90;;;;;;5053206;28;20428;-69
2023/08/23 00:20:22;;;;;;;;;;;22.00;99.90;;;;;;5052824;28;19924;-68
2023/08/23 00:22:50;;;;;;;;;;;22.10;99.90;;;;;;5060470;28;19928;-69
2023/08/23 00:25:18;;;;;;;;;;;22.20;99.90;;;;;;5052802;28;20383;-69
2023/08/23 00:27:45;;;;;;;;;;;22.50;99.90;;;;;;5051252;28;19931;-69
2023/08/23 00:30:26;;;;;;;;;;;22.50;99.90;;;;;;5041858;28;19964;-69
2023/08/23 00:32:55;;;;;;;;;;;22.50;99.90;;;;;;5050799;28;19955;-69
2023/08/23 00:35:23;;;;;;;;;;;22.40;99.90;;;;;;5051904;28;20471;-69
2023/08/23 00:37:51;;;;;;;;;;;22.40;99.90;;;;;;5053461;28;19979;-71
2023/08/23 00:40:19;;;;;;;;;;;22.50;99.90;;;;;;5054301;28;19936;-70
2023/08/23 00:42:47;;;;;;;;;;;22.50;99.90;;;;;;5051721;28;19990;-70
2023/08/23 00:45:15;;;;;;;;;;;22.60;99.90;;;;;;5053148;28;19970;-71
2023/08/23 00:47:42;;;;;;;;;;;22.70;99.90;;;;;;5056158;28;19929;-70
2023/08/23 00:50:11;;;;;;;;;;;22.70;99.90;;;;;;5048239;28;19932;-70
2023/08/23 00:52:40;;;;;;;;;;;22.70;99.90;;;;;;5051013;28;20415;-70
2023/08/23 00:55:19;;;;;;;;;;;22.80;99.90;;;;;;5047329;28;19928;-70
2023/08/23 00:57:47;;;;;;;;;;;22.60;99.90;;;;;;5043890;28;19929;-70
2023/08/23 01:00:16;;;;;;;;;;;22.60;99.90;;;;;;5048878;28;19925;-70
2023/08/23 01:02:44;;;;;;;;;;;22.40;99.90;;;;;;5049477;28;20403;-70
2023/08/23 01:05:13;;;;;;;;;;;22.40;99.90;;;;;;5041235;28;20388;-70
2023/08/23 01:07:46;;;;;;;;;;;22.40;99.90;;;;;;5048421;28;19975;-70
2023/08/23 01:10:18;;;;;;;;;;;22.40;99.90;;;;;;5036538;28;19925;-70
2023/08/23 01:13:01;;;;;;;;;;;22.60;99.90;;;;;;5051098;28;19936;-70
2023/08/23 01:15:30;;;;;;;;;;;22.50;99.90;;;;;;5041308;28;19925;-70
2023/08/23 01:17:59;;;;;;;;;;;22.50;99.90;;;;;;5041606;28;19929;-70
2023/08/23 01:20:28;;;;;;;;;;;22.50;99.90;;;;;;5043297;28;19925;-70
2023/08/23 01:23:02;;;;;;;;;;;22.40;99.90;;;;;;5052645;28;19936;-70
2023/08/23 01:25:30;;;;;;;;;;;22.50;99.90;;;;;;5043884;28;19932;-70
2023/08/23 01:27:58;;;;;;;;;;;22.30;99.90;;;;;;5045192;28;20082;-70
2023/08/23 01:30:26;;;;;;;;;;;22.40;99.90;;;;;;5048112;28;20452;-70
2023/08/23 01:32:56;;;;;;;;;;;22.30;99.90;;;;;;5052020;28;19932;-70
2023/08/23 01:35:26;;;;;;;;;;;22.30;99.90;;;;;;5050417;28;19979;-70
2023/08/23 01:37:59;;;;;;;;;;;22.30;99.90;;;;;;5050242;28;19932;-68
2023/08/23 01:40:28;;;;;;;;;;;22.40;99.90;;;;;;5049850;28;19998;-70
2023/08/23 01:42:57;;;;;;;;;;;22.40;99.90;;;;;;5051024;28;19925;-70
2023/08/23 01:45:24;;;;;;;;;;;22.40;99.90;;;;;;5048935;28;19987;-69
2023/08/23 01:47:52;;;;;;;;;;;22.40;99.90;;;;;;5050101;28;19928;-69
2023/08/23 01:50:20;;;;;;;;;;;22.30;99.90;;;;;;5051370;28;20297;-69
2023/08/23 01:52:48;;;;;;;;;;;22.30;99.90;;;;;;5050966;28;19924;-69
2023/08/23 01:55:17;;;;;;;;;;;22.40;99.90;;;;;;5047381;28;19975;-69
2023/08/23 01:57:46;;;;;;;;;;;22.30;99.90;;;;;;5051090;28;19925;-69
2023/08/23 02:00:14;;;;;;;;;;;22.30;99.90;;;;;;5056229;28;19932;-68
2023/08/23 02:02:42;;;;;;;;;;;22.20;99.90;;;;;;5070056;28;20307;-69
2023/08/23 02:05:10;;;;;;;;;;;22.00;99.90;;;;;;5050992;28;19924;-69
2023/08/23 02:07:38;;;;;;;;;;;21.70;99.90;;;;;;5050985;28;19925;-70
2023/08/23 02:10:06;;;;;;;;;;;21.50;99.90;;;;;;5050946;28;19929;-70
2023/08/23 02:12:34;;;;;;;;;;;21.20;99.90;;;;;;5047062;28;19929;-70
2023/08/23 02:15:03;;;;;;;;;;;21.10;99.90;;;;;;5050802;28;19933;-71
2023/08/23 02:17:31;;;;;;;;;;;20.80;99.90;;;;;;5051206;28;19971;-70
2023/08/23 02:19:59;;;;;;;;;;;20.80;99.90;;;;;;5050793;28;19932;-70
2023/08/23 02:22:27;;;;;;;;;;;20.60;99.90;;;;;;5051179;28;19929;-70
2023/08/23 02:24:54;;;;;;;;;;;20.60;99.90;;;;;;5050734;28;19925;-69
2023/08/23 02:27:22;;;;;;;;;;;20.60;99.90;;;;;;5048649;28;19933;-69
2023/08/23 02:29:50;;;;;;;;;;;20.50;99.90;;;;;;5050355;28;19928;-70
2023/08/23 02:32:19;;;;;;;;;;;20.50;99.90;;;;;;5070668;28;19924;-67
2023/08/23 02:34:47;;;;;;;;;;;20.50;99.90;;;;;;5052843;28;19956;-69
2023/08/23 02:37:14;;;;;;;;;;;20.50;99.90;;;;;;5051103;28;19929;-69
2023/08/23 02:39:42;;;;;;;;;;;20.50;99.90;;;;;;5050430;28;19952;-69
2023/08/23 02:42:10;;;;;;;;;;;20.50;99.90;;;;;;5050757;28;20284;-69
2023/08/23 02:44:38;;;;;;;;;;;20.40;99.90;;;;;;5046909;28;20411;-69
2023/08/23 02:47:06;;;;;;;;;;;20.40;99.90;;;;;;5060134;28;19928;-69
2023/08/23 02:49:35;;;;;;;;;;;20.30;99.90;;;;;;5061600;28;19928;-69
2023/08/23 02:52:04;;;;;;;;;;;20.30;99.90;;;;;;5046780;28;19927;-68
2023/08/23 02:54:31;;;;;;;;;;;20.40;99.90;;;;;;5049752;28;19971;-70
2023/08/23 02:56:59;;;;;;;;;;;20.50;99.90;;;;;;5058342;28;19985;-69
2023/08/23 02:59:27;;;;;;;;;;;20.40;99.90;;;;;;5057780;28;20387;-70
2023/08/23 03:01:55;;;;;;;;;;;20.40;99.90;;;;;;5040572;28;19939;-70
2023/08/23 03:04:23;;;;;;;;;;;20.40;99.90;;;;;;5049846;28;19929;-70
2023/08/23 03:06:52;;;;;;;;;;;20.40;99.90;;;;;;5043822;28;19932;-70
2023/08/23 03:09:20;;;;;;;;;;;20.40;99.90;;;;;;5059137;28;19954;-69
2023/08/23 03:11:47;;;;;;;;;;;20.40;99.90;;;;;;5045680;28;19925;-69
2023/08/23 03:14:15;;;;;;;;;;;20.40;99.90;;;;;;5056644;28;19933;-70
2023/08/23 03:16:43;;;;;;;;;;;20.30;99.90;;;;;;5054945;28;19936;-70
2023/08/23 03:19:11;;;;;;;;;;;20.30;99.90;;;;;;5055644;28;19955;-69
2023/08/23 03:21:38;;;;;;;;;;;20.30;99.90;;;;;;5058669;28;20345;-69
2023/08/23 03:24:08;;;;;;;;;;;20.40;99.90;;;;;;5043763;28;20011;-69
2023/08/23 03:26:35;;;;;;;;;;;20.40;99.90;;;;;;5049482;28;19928;-69
2023/08/23 03:29:03;;;;;;;;;;;20.50;99.90;;;;;;5062816;28;19947;-71
2023/08/23 03:31:31;;;;;;;;;;;20.40;99.90;;;;;;5046258;28;19929;-71
2023/08/23 03:33:59;;;;;;;;;;;20.30;99.90;;;;;;5045312;28;19925;-69
2023/08/23 03:36:27;;;;;;;;;;;20.30;99.90;;;;;;5052070;28;20295;-69
2023/08/23 03:38:55;;;;;;;;;;;20.10;99.90;;;;;;5056402;28;20346;-72
2023/08/23 03:41:24;;;;;;;;;;;20.10;99.90;;;;;;5054667;28;19978;-69
2023/08/23 03:43:51;;;;;;;;;;;20.10;99.90;;;;;;5057492;28;19937;-68
2023/08/23 03:46:23;;;;;;;;;;;20.20;99.90;;;;;;5057840;28;19932;-69
2023/08/23 03:48:50;;;;;;;;;;;20.30;99.90;;;;;;5053310;28;19932;-71
2023/08/23 03:51:18;;;;;;;;;;;20.80;99.90;;;;;;5053809;28;19955;-69
2023/08/23 03:53:46;;;;;;;;;;;21.10;99.90;;;;;;5046436;28;20355;-71
2023/08/23 03:56:14;;;;;;;;;;;21.10;99.90;;;;;;5043538;28;20323;-69
2023/08/23 03:58:43;;;;;;;;;;;21.00;99.90;;;;;;5040660;28;20426;-70
2023/08/23 04:01:11;;;;;;;;;;;20.80;99.90;;;;;;5041786;28;20461;-72
2023/08/23 04:03:39;;;;;;;;;;;20.70;99.90;;;;;;5040126;28;19932;-72
2023/08/23 04:06:07;;;;;;;;;;;20.70;99.90;;;;;;5038216;28;20047;-68
2023/08/23 04:08:35;;;;;;;;;;;20.70;99.90;;;;;;5039113;28;20326;-68
2023/08/23 04:11:03;;;;;;;;;;;21.00;99.90;;;;;;5038303;28;20364;-68
2023/08/23 04:13:30;;;;;;;;;;;21.10;99.90;;;;;;5039533;28;21578;-71
2023/08/23 04:15:59;;;;;;;;;;;20.90;99.90;;;;;;5035337;28;19941;-70
2023/08/23 04:18:28;;;;;;;;;;;20.70;99.90;;;;;;5038343;28;20016;-68
2023/08/23 04:20:59;;;;;;;;;;;20.80;99.90;;;;;;5038949;28;19951;-68
2023/08/23 04:23:27;;;;;;;;;;;21.00;99.90;;;;;;5039125;28;19924;-72
2023/08/23 04:25:55;;;;;;;;;;;21.20;99.90;;;;;;5039050;28;19947;-72
2023/08/23 04:28:22;;;;;;;;;;;21.40;99.90;;;;;;5039493;28;19936;-71
2023/08/23 04:30:50;;;;;;;;;;;21.50;99.90;;;;;;5039194;28;20051;-72
2023/08/23 04:33:19;;;;;;;;;;;21.50;99.90;;;;;;5037985;28;20885;-68
2023/08/23 04:35:47;;;;;;;;;;;21.40;99.90;;;;;;5037008;28;19932;-69
2023/08/23 04:38:15;;;;;;;;;;;21.40;99.90;;;;;;5040248;28;19940;-72
2023/08/23 04:40:43;;;;;;;;;;;21.20;99.90;;;;;;5039633;28;19936;-70
2023/08/23 04:43:10;;;;;;;;;;;21.10;99.90;;;;;;5038954;28;19937;-70
2023/08/23 04:45:38;;;;;;;;;;;21.40;99.90;;;;;;5039214;28;19929;-70
2023/08/23 04:48:07;;;;;;;;;;;21.40;99.90;;;;;;5041279;28;20493;-69
2023/08/23 04:50:36;;;;;;;;;;;21.30;99.90;;;;;;5040919;28;19940;-68
2023/08/23 04:53:04;;;;;;;;;;;21.30;99.90;;;;;;5039325;28;19940;-69
2023/08/23 04:55:32;;;;;;;;;;;21.50;99.90;;;;;;5037480;28;20797;-72
2023/08/23 04:57:59;;;;;;;;;;;21.50;99.90;;;;;;5039291;28;19932;-69
2023/08/23 05:00:27;;;;;;;;;;;21.40;99.90;;;;;;5037314;28;19972;-69
2023/08/23 05:02:55;;;;;;;;;;;21.30;99.90;;;;;;5037421;28;19924;-70
2023/08/23 05:05:23;;;;;;;;;;;21.30;99.90;;;;;;5037711;28;19928;-69
2023/08/23 05:07:52;;;;;;;;;;;21.20;99.90;;;;;;5037328;28;19999;-72
2023/08/23 05:10:20;;;;;;;;;;;20.90;99.90;;;;;;5037822;28;19928;-72
2023/08/23 05:12:48;;;;;;;;;;;20.70;99.90;;;;;;5036826;28;20506;-70
2023/08/23 05:15:16;;;;;;;;;;;20.50;99.90;;;;;;5036209;28;20341;-71
2023/08/23 05:17:45;;;;;;;;;;;20.30;99.90;;;;;;5037746;28;21477;-69
2023/08/23 05:20:14;;;;;;;;;;;20.30;99.90;;;;;;5036539;28;20419;-71
2023/08/23 05:22:42;;;;;;;;;;;20.40;99.90;;;;;;5037144;28;20608;-71
2023/08/23 05:25:11;;;;;;;;;;;20.30;99.90;;;;;;5036494;28;19940;-69
2023/08/23 05:27:39;;;;;;;;;;;20.40;99.90;;;;;;5038946;28;20031;-70
2023/08/23 05:30:08;;;;;;;;;;;20.40;99.90;;;;;;5038592;28;20022;-68
2023/08/23 05:32:36;;;;;;;;;;;20.20;99.90;;;;;;5038441;28;19936;-70
2023/08/23 05:35:04;;;;;;;;;;;20.10;99.90;;;;;;5035413;28;20157;-69
2023/08/23 05:37:32;;;;;;;;;;;20.20;99.90;;;;;;5037082;28;19956;-72
2023/08/23 05:39:59;;;;;;;;;;;20.30;99.90;;;;;;5036880;28;19939;-70
2023/08/23 05:42:30;;;;;;;;;;;20.20;99.90;;;;;;5037998;28;19948;-69
2023/08/23 05:44:58;;;;;;;;;;;20.10;99.90;;;;;;5036533;28;20327;-72
2023/08/23 05:47:26;;;;;;;;;;;20.20;99.90;;;;;;5038273;28;19939;-71
2023/08/23 05:49:54;;;;;;;;;;;20.40;99.90;;;;;;5038536;28;20299;-70
2023/08/23 05:52:22;;;;;;;;;;;20.70;99.90;;;;;;5039994;28;19937;-72
2023/08/23 05:54:50;;;;;;;;;;;21.00;99.90;;;;;;5036382;28;20361;-71
2023/08/23 05:57:17;;;;;;;;;;;21.30;99.90;;;;;;5039875;28;19932;-70
2023/08/23 05:59:47;;;;;;;;;;;21.40;99.90;;;;;;5037613;28;20023;-71
2023/08/23 06:02:15;;;;;;;;;;;21.50;99.90;;;;;;5039299;28;19929;-70
2023/08/23 06:04:42;;;;;;;;;;;21.50;99.90;;;;;;5036242;28;19943;-70
2023/08/23 06:07:10;;;;;;;;;;;21.60;99.90;;;;;;5037866;28;19933;-69
2023/08/23 06:09:38;;;;;;;;;;;21.60;99.90;;;;;;5036631;28;19936;-72
2023/08/23 06:12:06;;;;;;;;;;;21.70;99.90;;;;;;5039146;28;19936;-69
2023/08/23 06:14:34;;;;;;;;;;;21.80;99.90;;;;;;5034542;28;20959;-69
2023/08/23 06:17:03;;;;;;;;;;;21.90;99.90;;;;;;5038742;28;20139;-69
2023/08/23 06:19:31;;;;;;;;;;;21.90;99.90;;;;;;5036916;28;20032;-71
2023/08/23 06:21:59;;;;;;;;;;;22.10;99.90;;;;;;5035426;28;19954;-69
2023/08/23 06:24:26;;;;;;;;;;;22.10;99.90;;;;;;5038442;28;20407;-70
2023/08/23 06:26:54;;;;;;;;;;;22.00;99.90;;;;;;5039693;28;19932;-69
2023/08/23 06:29:22;;;;;;;;;;;22.00;99.90;;;;;;5040447;28;20383;-69
2023/08/23 06:31:50;;;;;;;;;;;21.90;99.90;;;;;;5040057;28;19929;-73
2023/08/23 06:34:19;;;;;;;;;;;21.90;99.90;;;;;;5039190;28;19935;-70
2023/08/23 06:36:47;;;;;;;;;;;21.70;99.90;;;;;;5039512;28;19940;-71
2023/08/23 06:39:14;;;;;;;;;;;21.60;99.90;;;;;;5041948;28;19929;-70
2023/08/23 06:42:00;;;;;;;;;;;21.80;99.90;;;;;;5030326;28;20846;-69
2023/08/23 06:44:28;;;;;;;;;;;21.90;99.90;;;;;;5039506;28;20288;-72
2023/08/23 06:46:56;;;;;;;;;;;22.10;99.90;;;;;;5042060;28;19929;-70
2023/08/23 06:49:25;;;;;;;;;;;22.20;99.90;;;;;;5045624;28;19963;-70
2023/08/23 06:51:52;;;;;;;;;;;22.20;99.90;;;;;;5044122;28;19929;-71
2023/08/23 06:54:20;;;;;;;;;;;22.30;99.90;;;;;;5042567;28;19936;-71
2023/08/23 06:56:48;;;;;;;;;;;22.40;99.90;;;;;;5043981;28;19933;-71
2023/08/23 06:59:16;;;;;;;;;;;22.50;99.90;;;;;;5040278;28;20003;-69
2023/08/23 07:01:43;;;;;;;;;;;22.60;99.90;;;;;;5044204;28;20358;-69
2023/08/23 07:04:11;;;;;;;;;;;22.70;99.90;;;;;;5044240;28;19928;-69
2023/08/23 07:06:43;;;;;;;;;;;22.70;99.90;;;;;;5042232;28;19940;-72
2023/08/23 07:09:11;;;;;;;;;;;22.80;99.90;;;;;;5042973;28;19951;-70
2023/08/23 07:11:39;;;;;;;;;;;22.80;99.90;;;;;;5043264;28;19929;-72
2023/08/23 07:14:08;;;;;;;;;;;23.00;99.90;;;;;;5043356;28;19936;-69
2023/08/23 07:16:36;;;;;;;;;;;22.90;99.90;;;;;;5041622;28;19932;-69
2023/08/23 07:19:04;;;;;;;;;;;23.00;99.90;;;;;;5043182;28;20576;-69
2023/08/23 07:21:32;;;;;;;;;;;23.10;99.90;;;;;;5042709;28;20007;-69
2023/08/23 07:24:01;;;;;;;;;;;23.30;99.90;;;;;;5043508;28;19936;-69
2023/08/23 07:26:29;;;;;;;;;;;23.30;99.90;;;;;;5041104;28;19948;-71
2023/08/23 07:28:57;;;;;;;;;;;23.50;99.90;;;;;;5043627;28;19929;-69
2023/08/23 07:31:24;;;;;;;;;;;23.50;99.90;;;;;;5041726;28;19925;-68
2023/08/23 07:33:52;;;;;;;;;;;23.50;99.90;;;;;;5042969;28;19939;-67
2023/08/23 07:36:20;;;;;;;;;;;23.50;99.90;;;;;;5040646;28;20313;-68
2023/08/23 07:38:48;;;;;;;;;;;23.60;99.90;;;;;;5043078;28;20434;-68
2023/08/23 07:41:17;;;;;;;;;;;23.70;99.90;;;;;;5042134;28;19937;-69
2023/08/23 07:43:45;;;;;;;;;;;23.70;99.90;;;;;;5042766;28;19939;-68
2023/08/23 07:46:13;;;;;;;;;;;23.80;99.90;;;;;;5040751;28;19933;-67
2023/08/23 07:48:41;;;;;;;;;;;24.00;99.90;;;;;;5042649;28;19964;-67
2023/08/23 07:51:09;;;;;;;;;;;24.10;99.90;;;;;;5042100;28;19932;-70
2023/08/23 07:53:37;;;;;;;;;;;24.20;99.90;;;;;;5041267;28;20543;-67
2023/08/23 07:56:05;;;;;;;;;;;24.30;99.90;;;;;;5036805;28;20805;-68
2023/08/23 07:58:36;;;;;;;;;;;24.40;99.90;;;;;;5037548;28;19939;-68
2023/08/23 08:01:04;;;;;;;;;;;24.50;99.90;;;;;;5039356;28;19982;-68
2023/08/23 08:03:32;;;;;;;;;;;24.60;99.90;;;;;;5039265;28;20026;-69
2023/08/23 08:06:00;;;;;;;;;;;24.70;99.90;;;;;;5035345;28;19984;-68
2023/08/23 08:08:30;;;;;;;;;;;25.00;99.90;;;;;;5039435;28;19932;-68
2023/08/23 08:10:59;;;;;;;;;;;25.20;99.90;;;;;;5039825;28;19940;-68
2023/08/23 08:13:27;;;;;;;;;;;25.30;99.90;;;;;;5038838;28;20489;-70
2023/08/23 08:15:56;;;;;;;;;;;25.40;99.90;;;;;;5036696;28;20062;-69
2023/08/23 08:18:24;;;;;;;;;;;25.60;99.90;;;;;;5039935;28;19925;-69
2023/08/23 08:20:52;;;;;;;;;;;25.70;99.90;;;;;;5037719;28;20438;-68
2023/08/23 08:23:20;;;;;;;;;;;25.80;99.90;;;;;;5039483;28;19940;-72
2023/08/23 08:25:47;;;;;;;;;;;25.90;99.90;;;;;;5037384;28;19983;-69
2023/08/23 08:28:15;;;;;;;;;;;25.90;99.90;;;;;;5039133;28;19940;-70
2023/08/23 08:30:43;;;;;;;;;;;26.10;99.90;;;;;;5039012;28;19994;-69
2023/08/23 08:33:12;;;;;;;;;;;26.20;99.90;;;;;;5036756;28;19933;-67
2023/08/23 08:35:40;;;;;;;;;;;26.30;99.90;;;;;;5037648;28;20380;-68
2023/08/23 08:38:08;;;;;;;;;;;26.30;99.90;;;;;;5037988;28;20382;-67
2023/08/23 08:40:36;;;;;;;;;;;26.30;99.90;;;;;;5037121;28;19933;-68
2023/08/23 08:43:05;;;;;;;;;;;26.30;99.90;;;;;;5038708;28;19941;-67
2023/08/23 08:45:35;;;;;;;;;;;26.50;99.90;;;;;;5036109;28;19948;-67
2023/08/23 08:48:03;;;;;;;;;;;26.60;99.90;;;;;;5038926;28;19955;-68
2023/08/23 08:50:32;;;;;;;;;;;26.80;99.90;;;;;;5036569;28;19956;-68
2023/08/23 08:53:01;;;;;;;;;;;26.90;99.90;;;;;;5040953;28;19935;-68
2023/08/23 08:55:30;;;;;;;;;;;26.90;99.90;;;;;;5038390;28;19936;-70
2023/08/23 08:57:59;;;;;;;;;;;27.00;99.90;;;;;;5041459;28;19924;-69
2023/08/23 09:00:27;;;;;;;;;;;27.20;99.90;;;;;;5039838;28;19935;-70
2023/08/23 09:02:58;;;;;;;;;;;27.30;99.90;;;;;;5037877;28;19932;-71
2023/08/23 09:05:26;;;;;;;;;;;27.60;99.90;;;;;;5035580;28;20015;-70
2023/08/23 09:07:56;;;;;;;;;;;27.80;99.90;;;;;;5036944;28;19929;-68
2023/08/23 09:10:24;;;;;;;;;;;28.10;99.90;;;;;;5037526;28;19936;-71
2023/08/23 09:12:53;;;;;;;;;;;28.30;99.90;;;;;;5037273;28;20756;-68
2023/08/23 09:15:23;;;;;;;;;;;28.60;99.90;;;;;;5035063;28;20002;-69
2023/08/23 09:17:52;;;;;;;;;;;28.80;99.90;;;;;;5035990;28;19932;-68
2023/08/23 09:20:20;;;;;;;;;;;29.00;99.90;;;;;;5037411;28;20315;-69
2023/08/23 09:22:50;;;;;;;;;;;29.40;99.90;;;;;;5037991;28;19932;-68
2023/08/23 09:25:20;;;;;;;;;;;29.70;99.90;;;;;;5033247;28;19995;-69
2023/08/23 09:27:48;;;;;;;;;;;29.50;99.90;;;;;;5037327;28;19940;-68
2023/08/23 09:30:16;;;;;;;;;;;29.50;99.90;;;;;;5036426;28;20461;-69
2023/08/23 09:32:43;;;;;;;;;;;29.50;99.90;;;;;;5035330;28;19940;-69
2023/08/23 09:35:12;;;;;;;;;;;29.70;99.90;;;;;;5032598;28;19947;-70
2023/08/23 09:37:41;;;;;;;;;;;29.90;99.90;;;;;;5038316;28;19933;-69
2023/08/23 09:40:20;;;;;;;;;;;30.10;99.90;;;;;;5037922;28;20026;-69
2023/08/23 09:42:48;;;;;;;;;;;30.00;99.90;;;;;;5036614;28;19932;-72
2023/08/23 09:45:18;;;;;;;;;;;29.90;99.90;;;;;;5033660;28;19975;-69
2023/08/23 09:47:47;;;;;;;;;;;30.00;99.90;;;;;;5036918;28;20059;-69
2023/08/23 09:50:16;;;;;;;;;;;30.30;99.90;;;;;;5036401;28;19936;-68
2023/08/23 09:52:45;;;;;;;;;;;30.10;99.90;;;;;;5035723;28;19940;-69
2023/08/23 09:55:13;;;;;;;;;;;30.10;99.90;;;;;;5033164;28;19974;-70
2023/08/23 09:57:44;;;;;;;;;;;30.00;99.90;;;;;;5037858;28;19939;-70
2023/08/23 10:00:12;;;;;;;;;;;30.00;99.90;;;;;;5038318;28;19933;-71
2023/08/23 10:02:41;;;;;;;;;;;30.10;99.90;;;;;;5037357;28;20451;-70
2023/08/23 10:05:11;;;;;;;;;;;30.30;99.90;;;;;;5033680;28;20019;-72
2023/08/23 10:07:40;;;;;;;;;;;30.40;99.90;;;;;;5038107;28;20028;-74
2023/08/23 10:10:09;;;;;;;;;;;30.60;99.90;;;;;;5037399;28;19940;-69
2023/08/23 10:12:38;;;;;;;;;;;30.80;99.90;;;;;;5038804;28;19928;-69
2023/08/23 10:15:09;;;;;;;;;;;31.20;99.90;;;;;;5031173;28;19940;-69
2023/08/23 10:17:37;;;;;;;;;;;31.30;99.80;;;;;;5039754;28;19936;-68
2023/08/23 10:20:06;;;;;;;;;;;31.30;99.90;;;;;;5044664;28;20511;-71
2023/08/23 10:22:34;;;;;;;;;;;31.60;99.80;;;;;;5042054;28;20670;-69
2023/08/23 10:25:14;;;;;;;;;;;31.50;99.10;;;;;;5038499;28;20537;-69
2023/08/23 10:27:42;;;;;;;;;;;31.40;99.90;;;;;;5043252;28;19933;-73
2023/08/23 10:30:15;;;;;;;;;;;31.60;99.90;;;;;;5045011;28;19968;-70
2023/08/23 10:32:47;;;;;;;;;;;31.80;98.70;;;;;;5042682;28;19933;-71
2023/08/23 10:35:22;;;;;;;;;;;32.20;98.00;;;;;;5039638;28;19936;-70
2023/08/23 10:37:51;;;;;;;;;;;32.20;98.60;;;;;;5043968;28;19937;-71
2023/08/23 10:40:20;;;;;;;;;;;32.30;97.80;;;;;;5043401;28;20403;-69
2023/08/23 10:42:49;;;;;;;;;;;32.50;97.80;;;;;;5043065;28;19937;-69
2023/08/23 10:45:18;;;;;;;;;;;32.70;97.30;;;;;;5038030;28;19933;-68
2023/08/23 10:47:48;;;;;;;;;;;32.20;98.40;;;;;;5041845;28;19936;-69
2023/08/23 10:50:17;;;;;;;;;;;32.10;96.60;;;;;;5044557;28;20015;-70
2023/08/23 10:52:45;;;;;;;;;;;32.00;96.50;;;;;;5043513;28;19929;-69
2023/08/23 10:55:13;;;;;;;;;;;32.20;97.00;;;;;;5037049;28;19952;-71
2023/08/23 10:57:41;;;;;;;;;;;32.60;96.80;;;;;;5041647;28;19933;-70
2023/08/23 11:00:09;;;;;;;;;;;33.00;98.10;;;;;;5043191;28;19937;-69
2023/08/23 11:02:38;;;;;;;;;;;32.90;95.40;;;;;;5044409;28;19928;-68
2023/08/23 11:05:06;;;;;;;;;;;32.80;96.50;;;;;;5039183;28;19933;-71
2023/08/23 11:07:34;;;;;;;;;;;32.60;92.80;;;;;;5042642;28;19932;-69
2023/08/23 11:10:02;;;;;;;;;;;32.60;92.70;;;;;;5043624;28;19943;-72
2023/08/23 11:12:30;;;;;;;;;;;33.00;93.50;;;;;;5043611;28;20155;-71
2023/08/23 11:14:58;;;;;;;;;;;33.00;92.70;;;;;;5038317;28;19933;-69
2023/08/23 11:17:26;;;;;;;;;;;33.30;92.60;;;;;;5045032;28;19925;-71
2023/08/23 11:19:55;;;;;;;;;;;33.30;92.30;;;;;;5042044;28;19933;-69
2023/08/23 11:22:24;;;;;;;;;;;33.40;91.60;;;;;;5044459;28;19940;-70
2023/08/23 11:24:53;;;;;;;;;;;33.70;92.30;;;;;;5039151;28;19940;-72
2023/08/23 11:27:20;;;;;;;;;;;33.80;91.50;;;;;;5045289;28;19982;-71
2023/08/23 11:29:47;;;;;;;;;;;34.00;90.60;;;;;;5039855;28;20378;-72
2023/08/23 11:32:16;;;;;;;;;;;33.90;90.80;;;;;;5040105;28;19983;-71
2023/08/23 11:34:44;;;;;;;;;;;33.90;91.00;;;;;;5037098;28;19940;-69
2023/08/23 11:37:13;;;;;;;;;;;33.80;92.20;;;;;;5040868;28;20394;-72
2023/08/23 11:39:42;;;;;;;;;;;33.90;91.10;;;;;;5042134;28;19933;-69
2023/08/23 11:42:10;;;;;;;;;;;33.90;91.90;;;;;;5041543;28;20431;-70
2023/08/23 11:44:37;;;;;;;;;;;33.50;91.80;;;;;;5037645;28;20498;-69
2023/08/23 11:47:05;;;;;;;;;;;33.10;92.20;;;;;;5040933;28;20457;-69
2023/08/23 11:49:33;;;;;;;;;;;33.20;91.70;;;;;;5040810;28;20469;-74
2023/08/23 11:52:01;;;;;;;;;;;33.40;90.20;;;;;;5039937;28;19933;-70
2023/08/23 11:54:31;;;;;;;;;;;33.70;92.20;;;;;;5039242;28;19987;-73
2023/08/23 11:56:59;;;;;;;;;;;33.50;92.00;;;;;;5026566;28;20331;-70
2023/08/23 11:59:27;;;;;;;;;;;33.30;91.20;;;;;;5040363;28;19948;-72
2023/08/23 12:01:55;;;;;;;;;;;33.40;91.40;;;;;;5039352;28;21011;-73
2023/08/23 12:04:22;;;;;;;;;;;33.70;90.70;;;;;;5038657;28;19937;-72
2023/08/23 12:06:50;;;;;;;;;;;33.90;90.50;;;;;;5036728;28;19940;-71
2023/08/23 12:09:19;;;;;;;;;;;33.90;91.40;;;;;;5038404;28;19933;-69
2023/08/23 12:11:48;;;;;;;;;;;34.10;90.10;;;;;;5040708;28;19932;-70
2023/08/23 12:14:15;;;;;;;;;;;34.30;90.60;;;;;;5040633;28;19966;-74
2023/08/23 12:16:43;;;;;;;;;;;34.40;90.50;;;;;;5036389;28;19978;-70
2023/08/23 12:19:11;;;;;;;;;;;33.70;89.30;;;;;;5039373;28;19937;-70
2023/08/23 12:21:57;;;;;;;;;;;33.20;90.80;;;;;;5039520;28;19947;-69
2023/08/23 12:24:25;;;;;;;;;;;32.70;92.00;;;;;;5039409;28;19925;-73
2023/08/23 12:26:54;;;;;;;;;;;32.70;90.80;;;;;;5037863;28;19947;-71
2023/08/23 12:29:22;;;;;;;;;;;33.30;90.10;;;;;;5038507;28;20368;-71
2023/08/23 12:31:50;;;;;;;;;;;33.40;89.20;;;;;;5039797;28;19933;-71
2023/08/23 12:34:18;;;;;;;;;;;33.30;90.20;;;;;;5039335;28;19932;-72
2023/08/23 12:36:46;;;;;;;;;;;33.60;90.60;;;;;;5035380;28;20512;-74
2023/08/23 12:39:16;;;;;;;;;;;33.90;88.10;;;;;;5039916;28;19932;-69
2023/08/23 12:41:44;;;;;;;;;;;34.10;90.40;;;;;;5040111;28;20300;-70
2023/08/23 12:44:13;;;;;;;;;;;34.40;87.40;;;;;;5040832;28;20434;-70
2023/08/23 12:46:40;;;;;;;;;;;34.40;87.50;;;;;;5037651;28;19933;-70
2023/08/23 12:49:12;;;;;;;;;;;34.50;84.90;;;;;;5041729;28;19941;-70
2023/08/23 12:51:40;;;;;;;;;;;34.80;84.70;;;;;;5040656;28;19933;-72
2023/08/23 12:54:08;;;;;;;;;;;35.20;83.70;;;;;;5040481;28;19932;-70
2023/08/23 12:56:36;;;;;;;;;;;35.80;82.70;;;;;;5035527;28;19972;-70
2023/08/23 12:59:04;;;;;;;;;;;36.20;79.00;;;;;;5041623;28;19982;-70
2023/08/23 13:01:34;;;;;;;;;;;36.30;77.60;;;;;;5038431;28;19933;-71
2023/08/23 13:04:03;;;;;;;;;;;36.60;77.60;;;;;;5038329;28;19929;-71
2023/08/23 13:06:30;;;;;;;;;;;36.60;74.90;;;;;;5038569;28;19932;-71
2023/08/23 13:08:58;;;;;;;;;;;36.10;76.90;;;;;;5037850;28;19978;-69
2023/08/23 13:11:26;;;;;;;;;;;35.40;75.40;;;;;;5038270;28;19952;-70
2023/08/23 13:13:54;;;;;;;;;;;35.00;75.60;;;;;;5036975;28;19951;-72
2023/08/23 13:16:21;;;;;;;;;;;35.50;77.30;;;;;;5037328;28;20393;-71
2023/08/23 13:18:51;;;;;;;;;;;35.30;79.70;;;;;;5038360;28;20066;-71
2023/08/23 13:21:19;;;;;;;;;;;35.60;81.90;;;;;;5038503;28;19937;-72
2023/08/23 13:23:46;;;;;;;;;;;36.00;76.30;;;;;;5039234;28;19928;-69
2023/08/23 13:26:14;;;;;;;;;;;36.10;77.60;;;;;;5037420;28;19929;-72
2023/08/23 13:28:42;;;;;;;;;;;35.90;74.80;;;;;;5040602;28;19925;-74
2023/08/23 13:31:09;;;;;;;;;;;36.00;76.20;;;;;;5037405;28;19968;-70
2023/08/23 13:33:37;;;;;;;;;;;36.00;77.90;;;;;;5035510;28;19933;-70
2023/08/23 13:36:07;;;;;;;;;;;35.30;77.40;;;;;;5036720;28;19933;-68
2023/08/23 13:38:35;;;;;;;;;;;35.20;77.00;;;;;;5036614;28;19929;-70
2023/08/23 13:41:03;;;;;;;;;;;35.50;74.90;;;;;;5037681;28;19963;-72
2023/08/23 13:43:32;;;;;;;;;;;36.10;73.70;;;;;;5038657;28;19940;-69
2023/08/23 13:46:00;;;;;;;;;;;36.70;73.40;;;;;;5035613;28;20526;-70
2023/08/23 13:48:28;;;;;;;;;;;37.10;72.10;;;;;;5036607;28;19933;-70
2023/08/23 13:50:56;;;;;;;;;;;37.10;72.80;;;;;;5036301;28;19972;-70
2023/08/23 13:53:25;;;;;;;;;;;37.50;71.20;;;;;;5038489;28;20545;-72
2023/08/23 13:55:53;;;;;;;;;;;37.60;71.00;;;;;;5037740;28;19987;-71
2023/08/23 13:58:20;;;;;;;;;;;37.60;71.50;;;;;;5036805;28;19932;-72
2023/08/23 14:00:48;;;;;;;;;;;37.80;73.20;;;;;;5037712;28;19972;-70
2023/08/23 14:03:16;;;;;;;;;;;37.60;71.80;;;;;;5034946;28;19940;-73
2023/08/23 14:05:44;;;;;;;;;;;37.60;70.20;;;;;;5037185;28;19978;-72
2023/08/23 14:08:12;;;;;;;;;;;37.70;69.50;;;;;;5035816;28;19933;-70
2023/08/23 14:10:41;;;;;;;;;;;37.90;69.00;;;;;;5035581;28;20871;-70
2023/08/23 14:13:09;;;;;;;;;;;38.20;68.20;;;;;;5035874;28;19937;-71
2023/08/23 14:15:36;;;;;;;;;;;37.90;68.70;;;;;;5038397;28;19979;-72
2023/08/23 14:18:04;;;;;;;;;;;37.80;67.90;;;;;;5037471;28;20021;-71
2023/08/23 14:20:32;;;;;;;;;;;37.60;69.20;;;;;;5037340;28;20016;-70
2023/08/23 14:23:00;;;;;;;;;;;38.00;71.50;;;;;;5034842;28;19925;-71